Arthur City, Texas
Current Conditions -  °F | °C
As of 1:55 PM on Thursday 23 Oct 2014 (Local Time) from KHHW Reporting Station
Broken Clouds Broken Clouds  
Wind Chill: 69°   Ceiling: 7000
Heat Index: 69°   Visibility: 10mi
Dew Point: 49°   Wind: 6mph
Humidity: 49%   Direction: 160°SSE
Pressure: 30.14"   Gusts: NA
Location:  33.87°N, 95.51°W
Report Text: KHHW 231855Z AUTO 16005KT 10SM BKN070 BKN110 21/10 A3014 RMK AO2 T02070096
Loading
Personal Weather Stations






























Interactive Weather Map
Tropical Storm Tracking
New forecast layout! Learn more

10-Day Weather Forecast

Advertisements
Track Severe Weather on mobile